Time;durP1;ratioP1;P1;durP2;ratioP2;P2;SDS_P1;SDS_P2;PMS_P1;PMS_P2;Temp;Humidity;BMP_temperature;BMP_pressure;BME280_temperature;BME280_humidity;BME280_pressure;Samples;Min_cycle;Max_cycle;Signal;HPM_P1;HPM_P2
2023/06/27 00:00:37;;;;;;;200.90;191.50;;;11.10;99.90;;;;;;5046856;28;20405;-72
2023/06/27 00:03:02;;;;;;;190.05;181.02;;;11.10;99.90;;;;;;5035711;28;20072;-72
2023/06/27 00:05:30;;;;;;;196.23;187.32;;;11.20;99.90;;;;;;5014726;28;20029;-72
2023/06/27 00:07:56;;;;;;;203.38;194.07;;;11.20;99.90;;;;;;5038334;28;20537;-72
2023/06/27 00:10:21;;;;;;;180.25;172.07;;;11.20;99.90;;;;;;5044840;28;20045;-71
2023/06/27 00:12:47;;;;;;;201.95;192.63;;;11.20;99.90;;;;;;5043201;28;20049;-72
2023/06/27 00:15:13;;;;;;;195.85;186.85;;;11.20;99.90;;;;;;5027650;28;20044;-71
2023/06/27 00:17:40;;;;;;;199.95;190.57;;;11.20;99.90;;;;;;5031228;28;20125;-71
2023/06/27 00:20:09;;;;;;;202.15;193.00;;;11.20;99.90;;;;;;5042085;28;20041;-71
2023/06/27 00:22:39;;;;;;;177.52;169.40;;;11.20;99.90;;;;;;5030260;28;20077;-71
2023/06/27 00:25:06;;;;;;;197.55;188.38;;;11.20;99.90;;;;;;5043117;28;20075;-71
2023/06/27 00:27:32;;;;;;;205.98;196.80;;;11.30;99.90;;;;;;5033860;28;20053;-71
2023/06/27 00:29:58;;;;;;;185.13;176.45;;;11.30;99.90;;;;;;5029182;28;20091;-71
2023/06/27 00:32:23;;;;;;;1999.90;999.90;;;11.30;99.90;;;;;;5028122;28;20041;-71
2023/06/27 00:34:49;;;;;;;641.50;385.05;;;11.40;99.90;;;;;;5024056;28;20127;-73
2023/06/27 00:37:15;;;;;;;633.10;376.67;;;11.40;99.90;;;;;;5036148;28;20164;-72
2023/06/27 00:39:41;;;;;;;172.10;164.15;;;11.30;99.90;;;;;;5028523;28;20079;-72
2023/06/27 00:42:07;;;;;;;166.77;158.88;;;11.30;99.90;;;;;;5028224;28;20822;-72
2023/06/27 00:44:32;;;;;;;169.15;161.07;;;11.30;99.90;;;;;;5039843;28;20041;-72
2023/06/27 00:46:58;;;;;;;157.90;150.45;;;11.30;99.90;;;;;;5043989;28;20055;-72
2023/06/27 00:49:25;;;;;;;156.88;149.45;;;11.30;99.90;;;;;;5026911;28;20053;-72
2023/06/27 00:51:53;;;;;;;149.18;141.93;;;11.30;99.90;;;;;;5035900;28;20040;-72
2023/06/27 00:54:19;;;;;;;154.05;146.80;;;11.30;99.90;;;;;;5025212;28;20045;-72
2023/06/27 00:56:48;;;;;;;151.18;143.73;;;11.20;99.90;;;;;;5028977;28;20041;-72
2023/06/27 00:59:13;;;;;;;141.95;135.07;;;11.20;99.90;;;;;;5028789;28;20041;-72
2023/06/27 01:01:39;;;;;;;141.23;134.15;;;11.10;99.90;;;;;;5044432;28;20049;-72
2023/06/27 01:04:05;;;;;;;141.38;134.63;;;11.10;99.90;;;;;;5036462;28;20160;-72
2023/06/27 01:07:04;;;;;;;147.02;140.07;;;11.10;99.90;;;;;;5039240;28;20052;-72
2023/06/27 01:09:48;;;;;;;144.43;137.15;;;11.10;99.90;;;;;;5064452;28;20041;-72
2023/06/27 01:12:37;;;;;;;147.90;140.77;;;11.10;99.90;;;;;;5063993;28;20405;-72
2023/06/27 01:15:04;;;;;;;140.43;133.45;;;11.10;99.90;;;;;;5028290;28;20095;-72
2023/06/27 01:17:32;;;;;;;145.63;138.85;;;11.00;99.90;;;;;;5036790;28;20072;-72
2023/06/27 01:20:00;;;;;;;153.70;146.43;;;11.00;99.90;;;;;;5045879;28;20098;-72
2023/06/27 01:22:44;;;;;;;155.38;148.13;;;11.00;99.90;;;;;;5044972;28;20076;-72
2023/06/27 01:25:12;;;;;;;149.32;142.38;;;11.00;99.90;;;;;;5021944;28;20032;-72
2023/06/27 01:27:38;;;;;;;164.80;157.13;;;10.90;99.90;;;;;;5055412;28;20087;-71
2023/06/27 01:30:05;;;;;;;165.93;158.15;;;10.90;99.90;;;;;;5036577;28;20068;-72
2023/06/27 01:32:36;;;;;;;165.57;157.93;;;11.00;99.90;;;;;;5019004;28;20041;-72
2023/06/27 01:35:26;;;;;;;156.23;148.80;;;11.00;99.90;;;;;;5044089;28;20041;-72
2023/06/27 01:37:57;;;;;;;160.20;152.93;;;11.00;99.90;;;;;;5029514;28;20410;-72
2023/06/27 01:40:28;;;;;;;164.30;156.60;;;11.00;99.90;;;;;;5015526;28;20069;-72
2023/06/27 01:42:59;;;;;;;167.27;159.05;;;11.00;99.90;;;;;;5038946;28;20404;-72
2023/06/27 01:45:25;;;;;;;164.30;156.45;;;11.00;99.90;;;;;;5024531;28;20029;-72
2023/06/27 01:47:51;;;;;;;163.90;156.25;;;11.00;99.90;;;;;;5029885;28;20041;-72
2023/06/27 01:50:18;;;;;;;160.75;153.15;;;11.00;99.90;;;;;;5045350;28;20058;-72
2023/06/27 01:52:43;;;;;;;163.10;155.73;;;11.00;99.90;;;;;;5034592;28;20492;-72
2023/06/27 01:55:09;;;;;;;166.45;158.45;;;11.00;99.90;;;;;;5041070;28;20053;-72
2023/06/27 01:57:36;;;;;;;165.57;157.90;;;11.10;99.90;;;;;;5044463;28;20040;-72
2023/06/27 02:00:02;;;;;;;161.70;154.05;;;11.00;99.90;;;;;;5037701;28;20424;-72
2023/06/27 02:02:28;;;;;;;161.23;153.95;;;11.10;99.90;;;;;;5038124;28;20055;-73
2023/06/27 02:04:53;;;;;;;164.05;156.43;;;11.00;99.90;;;;;;5016200;28;20489;-72
2023/06/27 02:07:19;;;;;;;165.02;157.55;;;11.00;99.90;;;;;;5037130;28;20111;-72
2023/06/27 02:09:45;;;;;;;152.90;145.95;;;11.00;99.90;;;;;;5021098;28;20486;-73
2023/06/27 02:12:11;;;;;;;164.40;157.07;;;11.00;99.90;;;;;;5043512;28;20045;-72
2023/06/27 02:14:38;;;;;;;160.45;152.88;;;11.00;99.90;;;;;;5044901;28;20052;-72
2023/06/27 02:17:04;;;;;;;166.65;159.18;;;11.00;99.90;;;;;;5037992;28;20052;-72
2023/06/27 02:19:30;;;;;;;163.25;156.00;;;11.00;99.90;;;;;;5041483;28;20060;-72
2023/06/27 02:21:56;;;;;;;164.57;156.68;;;11.00;99.90;;;;;;5019977;28;20041;-72
2023/06/27 02:24:22;;;;;;;166.75;159.13;;;11.00;99.90;;;;;;5037456;28;20115;-72
2023/06/27 02:26:47;;;;;;;168.20;160.57;;;10.90;99.90;;;;;;5031459;28;20032;-72
2023/06/27 02:29:13;;;;;;;168.82;161.10;;;10.90;99.90;;;;;;5028623;28;20045;-72
2023/06/27 02:31:38;;;;;;;169.65;161.60;;;10.90;99.90;;;;;;5040927;28;20923;-72
2023/06/27 02:34:04;;;;;;;164.70;157.00;;;10.90;99.90;;;;;;5031636;28;20053;-72
2023/06/27 02:36:30;;;;;;;167.65;159.73;;;10.90;99.90;;;;;;5039026;28;20041;-72
2023/06/27 02:38:56;;;;;;;167.38;159.68;;;10.90;99.90;;;;;;5038551;28;20413;-72
2023/06/27 02:41:22;;;;;;;168.45;160.45;;;10.90;99.90;;;;;;5040960;28;20042;-72
2023/06/27 02:43:49;;;;;;;164.38;156.90;;;10.90;99.90;;;;;;5052250;28;20049;-72
2023/06/27 02:46:14;;;;;;;166.20;158.60;;;10.90;99.90;;;;;;5047412;28;20048;-72
2023/06/27 02:48:40;;;;;;;165.18;157.48;;;10.90;99.90;;;;;;5048325;28;20364;-72
2023/06/27 02:51:06;;;;;;;157.35;149.93;;;10.90;99.90;;;;;;5039682;28;20408;-72
2023/06/27 02:53:31;;;;;;;165.77;158.18;;;10.90;99.90;;;;;;5032948;28;20461;-72
2023/06/27 02:56:01;;;;;;;159.07;151.73;;;10.80;99.90;;;;;;5037622;28;20051;-72
2023/06/27 02:58:27;;;;;;;158.27;150.80;;;10.80;99.90;;;;;;5032627;28;20144;-72
2023/06/27 03:00:53;;;;;;;155.60;148.40;;;10.80;99.90;;;;;;5031519;28;20234;-72
2023/06/27 03:03:19;;;;;;;166.45;158.63;;;10.80;99.90;;;;;;5042617;28;20132;-72
2023/06/27 03:05:45;;;;;;;166.75;158.55;;;10.70;99.90;;;;;;5067848;28;20045;-71
2023/06/27 03:08:11;;;;;;;168.57;160.70;;;10.70;99.90;;;;;;5022888;28;20060;-72
2023/06/27 03:10:37;;;;;;;171.40;163.52;;;10.70;99.90;;;;;;5021721;28;20138;-72
2023/06/27 03:13:02;;;;;;;169.88;162.05;;;10.70;99.90;;;;;;5053868;28;20428;-72
2023/06/27 03:15:28;;;;;;;169.73;161.38;;;10.70;99.90;;;;;;5048372;28;20472;-72
2023/06/27 03:17:54;;;;;;;173.05;165.23;;;10.70;99.90;;;;;;5031622;28;20041;-72
2023/06/27 03:20:20;;;;;;;185.10;176.50;;;10.70;99.90;;;;;;5043836;28;20044;-71
2023/06/27 03:22:46;;;;;;;183.60;175.10;;;10.70;99.90;;;;;;5033947;28;20456;-72
2023/06/27 03:25:12;;;;;;;187.77;179.23;;;10.80;99.90;;;;;;5038353;28;20033;-72
2023/06/27 03:27:38;;;;;;;186.48;177.90;;;10.80;99.90;;;;;;5038954;28;20485;-72
2023/06/27 03:30:04;;;;;;;191.70;182.48;;;10.80;99.90;;;;;;5044695;28;20041;-72
2023/06/27 03:32:30;;;;;;;187.07;178.65;;;10.80;99.90;;;;;;5043969;28;20493;-72
2023/06/27 03:34:56;;;;;;;186.32;177.05;;;10.90;99.90;;;;;;5047773;28;20086;-72
2023/06/27 03:37:22;;;;;;;180.73;172.10;;;10.90;99.90;;;;;;5045793;28;20473;-72
2023/06/27 03:39:47;;;;;;;176.75;168.82;;;10.90;99.90;;;;;;5031088;28;20041;-72
2023/06/27 03:42:15;;;;;;;177.18;168.88;;;10.90;99.90;;;;;;5030527;28;20168;-72
2023/06/27 03:44:40;;;;;;;185.98;177.52;;;10.90;99.90;;;;;;5021937;28;20433;-72
2023/06/27 03:47:06;;;;;;;180.20;172.23;;;10.90;99.90;;;;;;5047239;28;20052;-72
2023/06/27 03:49:32;;;;;;;178.18;169.65;;;10.90;99.90;;;;;;5045924;28;20045;-72
2023/06/27 03:51:58;;;;;;;182.77;173.90;;;10.90;99.90;;;;;;5046125;28;20047;-72
2023/06/27 03:54:23;;;;;;;183.75;175.05;;;10.90;99.90;;;;;;5038135;28;20508;-72
2023/06/27 03:56:49;;;;;;;175.30;166.85;;;10.90;99.90;;;;;;5033498;28;20072;-71
2023/06/27 03:59:14;;;;;;;167.13;159.65;;;10.90;99.90;;;;;;5044270;28;20539;-72
2023/06/27 04:01:41;;;;;;;173.15;164.90;;;11.00;99.90;;;;;;5034106;28;20079;-72
2023/06/27 04:04:07;;;;;;;170.93;163.07;;;11.00;99.90;;;;;;5038792;28;20051;-72
2023/06/27 04:06:33;;;;;;;176.80;168.68;;;11.00;99.90;;;;;;5043535;28;20044;-72
2023/06/27 04:09:02;;;;;;;181.38;172.90;;;11.00;99.90;;;;;;5029413;28;20452;-72
2023/06/27 04:11:28;;;;;;;175.52;167.15;;;11.00;99.90;;;;;;5060860;28;20033;-72
2023/06/27 04:13:56;;;;;;;170.15;161.85;;;11.10;99.90;;;;;;5030294;28;20559;-72
2023/06/27 04:16:22;;;;;;;172.00;164.05;;;11.10;99.90;;;;;;5031509;28;20131;-72
2023/06/27 04:18:48;;;;;;;180.15;172.23;;;11.20;99.90;;;;;;5030182;28;20469;-72
2023/06/27 04:21:14;;;;;;;174.25;165.95;;;11.20;99.90;;;;;;5063537;28;20127;-72
2023/06/27 04:23:39;;;;;;;165.48;157.57;;;11.20;99.90;;;;;;5037094;28;20041;-72
2023/06/27 04:26:07;;;;;;;164.88;156.95;;;11.30;99.90;;;;;;5034458;28;20044;-72
2023/06/27 04:28:33;;;;;;;165.75;158.15;;;11.30;99.90;;;;;;5041620;28;20052;-72
2023/06/27 04:31:00;;;;;;;165.65;157.68;;;11.40;99.90;;;;;;5021788;28;20475;-72
2023/06/27 04:33:29;;;;;;;171.35;162.88;;;11.40;99.90;;;;;;5028209;28;20057;-72
2023/06/27 04:36:02;;;;;;;176.02;167.82;;;11.60;99.90;;;;;;5053077;28;20102;-72
2023/06/27 04:38:37;;;;;;;175.90;167.80;;;11.60;99.90;;;;;;5027023;28;21248;-72
2023/06/27 04:41:04;;;;;;;185.05;176.68;;;11.70;99.90;;;;;;5037806;28;20029;-72
2023/06/27 04:43:32;;;;;;;184.60;176.15;;;12.00;99.90;;;;;;5026995;28;20478;-72
2023/06/27 04:46:00;;;;;;;180.80;172.05;;;12.10;99.90;;;;;;5039271;28;20056;-72
2023/06/27 04:48:26;;;;;;;209.65;200.18;;;12.20;99.90;;;;;;5044833;28;20572;-71
2023/06/27 04:50:53;;;;;;;208.38;199.15;;;12.30;99.90;;;;;;5047355;28;20052;-72
2023/06/27 04:53:20;;;;;;;229.27;219.10;;;12.40;99.90;;;;;;5028487;28;20068;-72
2023/06/27 04:55:46;;;;;;;195.50;186.10;;;12.50;99.90;;;;;;5046835;28;20053;-72
2023/06/27 04:58:12;;;;;;;240.27;229.63;;;12.70;99.90;;;;;;5030625;28;20413;-72
2023/06/27 05:00:38;;;;;;;223.00;212.77;;;12.80;99.90;;;;;;5042910;28;20045;-72
2023/06/27 05:03:03;;;;;;;224.77;214.57;;;12.90;99.90;;;;;;5029426;28;20056;-72
2023/06/27 05:05:33;;;;;;;206.55;197.18;;;13.10;99.90;;;;;;5046386;28;20584;-72
2023/06/27 05:08:03;;;;;;;247.52;236.82;;;13.20;99.90;;;;;;5028814;28;20036;-72
2023/06/27 05:10:30;;;;;;;272.85;261.15;;;13.40;99.90;;;;;;5044194;28;20382;-72
2023/06/27 05:12:56;;;;;;;286.70;274.02;;;13.50;99.90;;;;;;5035374;28;20575;-72
2023/06/27 05:15:22;;;;;;;329.17;314.42;;;13.60;99.90;;;;;;5070846;28;20096;-72
2023/06/27 05:18:15;;;;;;;336.88;322.10;;;13.70;99.90;;;;;;5031070;28;20069;-72
2023/06/27 05:20:45;;;;;;;293.90;280.92;;;13.80;99.90;;;;;;5053273;28;20045;-72
2023/06/27 05:23:11;;;;;;;278.70;266.27;;;14.00;99.90;;;;;;5036084;28;20643;-72
2023/06/27 05:25:37;;;;;;;276.02;263.20;;;14.10;99.90;;;;;;5040010;28;20124;-72
2023/06/27 05:28:03;;;;;;;331.50;316.25;;;14.20;99.90;;;;;;5071669;28;20182;-72
2023/06/27 05:30:30;;;;;;;325.70;310.27;;;14.30;99.90;;;;;;5015912;28;20045;-72
2023/06/27 05:32:57;;;;;;;328.27;313.00;;;14.40;99.90;;;;;;5035702;28;20166;-72
2023/06/27 05:35:23;;;;;;;332.35;316.42;;;14.60;99.90;;;;;;5065704;28;20065;-72
2023/06/27 05:37:50;;;;;;;310.95;296.08;;;14.70;99.90;;;;;;5036957;28;20044;-72
2023/06/27 05:40:15;;;;;;;256.80;244.75;;;14.90;99.90;;;;;;5043686;28;20041;-72
2023/06/27 05:42:41;;;;;;;177.40;169.10;;;15.00;99.90;;;;;;5071847;28;20545;-71
2023/06/27 05:45:08;;;;;;;205.15;195.48;;;15.10;99.90;;;;;;5036276;28;20044;-72
2023/06/27 05:47:33;;;;;;;175.60;167.18;;;15.30;99.90;;;;;;5032294;28;20123;-72
2023/06/27 05:49:59;;;;;;;171.05;162.95;;;15.50;99.90;;;;;;5040464;28;20119;-72
2023/06/27 05:52:25;;;;;;;260.90;248.05;;;15.70;99.90;;;;;;5032454;28;20045;-72
2023/06/27 05:54:51;;;;;;;146.73;139.55;;;15.80;99.90;;;;;;5036148;28;20577;-72
2023/06/27 05:57:18;;;;;;;113.60;108.25;;;16.00;99.90;;;;;;5054633;28;20037;-72
2023/06/27 05:59:44;;;;;;;118.20;112.32;;;16.20;99.90;;;;;;5020987;28;20049;-72
2023/06/27 06:02:09;;;;;;;106.47;101.53;;;16.40;99.90;;;;;;5039961;28;20047;-72
2023/06/27 06:04:35;;;;;;;91.50;86.95;;;16.50;99.90;;;;;;5019955;28;20056;-72
2023/06/27 06:07:03;;;;;;;97.72;93.00;;;16.60;99.90;;;;;;5032625;28;20052;-73
2023/06/27 06:09:30;;;;;;;81.18;77.20;;;16.70;99.90;;;;;;5037557;28;20049;-72
2023/06/27 06:11:56;;;;;;;138.43;131.40;;;16.80;99.90;;;;;;5057193;28;20053;-74
2023/06/27 06:14:22;;;;;;;139.63;133.07;;;17.00;99.90;;;;;;5026177;28;20052;-73
2023/06/27 06:16:48;;;;;;;100.45;95.50;;;17.10;99.90;;;;;;5041189;28;20053;-72
2023/06/27 06:19:14;;;;;;;99.15;94.60;;;17.20;99.90;;;;;;5037552;28;20500;-72
2023/06/27 06:21:40;;;;;;;103.85;98.97;;;17.30;99.90;;;;;;5026694;28;20803;-72
2023/06/27 06:24:08;;;;;;;88.32;83.97;;;17.50;99.90;;;;;;5032661;28;20037;-73
2023/06/27 06:26:35;;;;;;;83.43;79.22;;;17.70;99.90;;;;;;5028658;28;20478;-72
2023/06/27 06:29:04;;;;;;;69.72;65.97;;;18.20;99.90;;;;;;5028317;28;20045;-73
2023/06/27 06:31:30;;;;;;;90.13;85.57;;;19.00;99.90;;;;;;5044264;28;20124;-73
2023/06/27 06:33:57;;;;;;;82.78;78.78;;;20.00;99.90;;;;;;5034946;28;20049;-74
2023/06/27 06:36:23;;;;;;;110.32;105.45;;;21.00;99.90;;;;;;5043129;28;20056;-72
2023/06/27 06:38:49;;;;;;;69.55;66.38;;;21.60;99.90;;;;;;5035680;28;20076;-73
2023/06/27 06:41:15;;;;;;;135.13;129.23;;;22.00;99.90;;;;;;5045630;28;20568;-73
2023/06/27 06:43:41;;;;;;;105.35;100.30;;;22.60;99.90;;;;;;5027882;28;20481;-73
2023/06/27 06:46:09;;;;;;;112.00;106.85;;;22.90;99.90;;;;;;5037643;28;20140;-73
2023/06/27 06:48:35;;;;;;;59.97;57.13;;;23.30;99.90;;;;;;5028723;28;20133;-73
2023/06/27 06:51:01;;;;;;;73.28;69.88;;;23.80;99.90;;;;;;5044713;28;20076;-73
2023/06/27 06:53:26;;;;;;;188.80;180.48;;;24.10;99.90;;;;;;5026608;28;20044;-73
2023/06/27 06:55:52;;;;;;;87.57;83.25;;;24.30;99.90;;;;;;5024220;28;20091;-73
2023/06/27 06:58:18;;;;;;;120.28;114.35;;;24.50;99.90;;;;;;5027225;28;20642;-73
2023/06/27 07:00:43;;;;;;;106.97;101.82;;;24.50;99.90;;;;;;5039238;28;20398;-73
2023/06/27 07:03:09;;;;;;;254.23;242.02;;;24.50;99.90;;;;;;5030773;28;20048;-75
2023/06/27 07:05:41;;;;;;;177.38;169.32;;;24.50;99.90;;;;;;5041387;28;20044;-72
2023/06/27 07:08:09;;;;;;;158.18;151.23;;;24.30;99.90;;;;;;5025428;28;20061;-73
2023/06/27 07:10:34;;;;;;;102.90;98.13;;;24.10;99.90;;;;;;5039764;28;20412;-73
2023/06/27 07:13:01;;;;;;;121.10;115.82;;;23.50;99.90;;;;;;5035291;28;20041;-74
2023/06/27 07:15:28;;;;;;;114.10;109.05;;;23.10;99.90;;;;;;5040702;28;20800;-74
2023/06/27 07:17:55;;;;;;;290.63;277.52;;;23.10;99.90;;;;;;5038722;28;20041;-74
2023/06/27 07:20:22;;;;;;;168.63;161.13;;;23.00;99.90;;;;;;5042796;28;20053;-74
2023/06/27 07:22:51;;;;;;;126.22;120.63;;;23.10;99.90;;;;;;5031328;28;20080;-74
2023/06/27 07:25:17;;;;;;;138.85;132.85;;;23.10;99.90;;;;;;5072907;28;20489;-73
2023/06/27 07:27:43;;;;;;;113.68;108.57;;;22.60;99.90;;;;;;5040869;28;20040;-72
2023/06/27 07:30:10;;;;;;;132.25;126.35;;;22.20;99.90;;;;;;5031698;28;20442;-73
2023/06/27 07:32:35;;;;;;;113.75;108.53;;;22.40;99.90;;;;;;5043398;28;20388;-73
2023/06/27 07:35:01;;;;;;;205.30;196.35;;;22.60;99.90;;;;;;5071342;28;20044;-76
2023/06/27 07:37:27;;;;;;;156.70;149.80;;;22.60;99.90;;;;;;5042086;28;20134;-73
2023/06/27 07:39:53;;;;;;;130.85;124.85;;;22.50;99.90;;;;;;5028335;28;20069;-74
2023/06/27 07:42:18;;;;;;;237.57;226.07;;;22.90;99.90;;;;;;5064228;28;20088;-73
2023/06/27 07:44:44;;;;;;;185.15;176.50;;;23.60;99.90;;;;;;5022078;28;20076;-73
2023/06/27 07:47:10;;;;;;;193.25;184.77;;;24.00;99.90;;;;;;5048153;28;20617;-73
2023/06/27 07:49:37;;;;;;;260.63;249.00;;;24.40;99.90;;;;;;5027954;28;20048;-74
2023/06/27 07:52:06;;;;;;;228.23;217.98;;;24.20;99.90;;;;;;5064249;28;20079;-74
2023/06/27 07:54:31;;;;;;;135.02;128.90;;;24.10;99.90;;;;;;5021191;28;20128;-74
2023/06/27 07:56:57;;;;;;;139.00;132.77;;;24.40;99.00;;;;;;5040576;28;20127;-74
2023/06/27 07:59:23;;;;;;;246.73;235.70;;;24.50;99.30;;;;;;5030767;28;20048;-73
2023/06/27 08:01:48;;;;;;;56.28;53.47;;;24.10;99.90;;;;;;5043174;28;20067;-73
2023/06/27 08:04:17;;;;;;;62.53;59.50;;;24.10;99.40;;;;;;5041842;28;20136;-74
2023/06/27 08:06:43;;;;;;;69.80;66.53;;;23.80;97.50;;;;;;5046846;28;20049;-72
2023/06/27 08:09:08;;;;;;;101.25;96.45;;;23.40;98.70;;;;;;5034629;28;20102;-72
2023/06/27 08:11:34;;;;;;;128.27;121.88;;;23.10;99.90;;;;;;5035763;28;20077;-74
2023/06/27 08:14:00;;;;;;;101.47;96.90;;;23.20;99.90;;;;;;5029541;28;20079;-74
2023/06/27 08:16:26;;;;;;;83.32;79.25;;;23.40;99.80;;;;;;5027749;28;20041;-73
2023/06/27 08:18:52;;;;;;;92.88;88.63;;;23.30;98.40;;;;;;5022713;28;20102;-74
2023/06/27 08:21:17;;;;;;;131.30;125.60;;;22.80;99.40;;;;;;5037420;28;20079;-73
2023/06/27 08:23:44;;;;;;;65.68;62.33;;;22.30;99.90;;;;;;5028208;28;20077;-75
2023/06/27 08:26:16;;;;;;;116.47;111.32;;;21.80;98.80;;;;;;5023515;28;20053;-75
2023/06/27 08:28:42;;;;;;;155.25;148.30;;;21.30;99.60;;;;;;5033807;28;20129;-73
2023/06/27 08:31:10;;;;;;;130.75;124.90;;;21.10;99.90;;;;;;5045140;28;20055;-73
2023/06/27 08:33:35;;;;;;;135.82;130.00;;;21.50;99.90;;;;;;5030761;28;20084;-74
2023/06/27 08:36:01;;;;;;;123.80;118.38;;;22.00;99.90;;;;;;5046161;28;20115;-74
2023/06/27 08:38:27;;;;;;;147.77;141.23;;;22.50;99.10;;;;;;5063656;28;20048;-74
2023/06/27 08:40:54;;;;;;;114.80;109.72;;;22.80;98.80;;;;;;5044800;28;20124;-74
2023/06/27 08:43:20;;;;;;;162.57;155.27;;;23.10;97.60;;;;;;5020775;28;20041;-74
2023/06/27 08:45:48;;;;;;;140.68;134.48;;;23.40;97.20;;;;;;5019638;28;20039;-74
2023/06/27 08:48:16;;;;;;;60.83;57.88;;;23.80;97.10;;;;;;5017264;28;20121;-74
2023/06/27 08:50:42;;;;;;;136.60;130.40;;;23.60;95.10;;;;;;5026533;28;20103;-73
2023/06/27 08:53:17;;;;;;;173.77;166.25;;;23.30;96.10;;;;;;5036609;28;20040;-74
2023/06/27 08:55:49;;;;;;;282.63;269.48;;;23.20;94.40;;;;;;5045169;28;20049;-74
2023/06/27 08:58:15;;;;;;;68.25;64.93;;;22.80;93.00;;;;;;5026983;28;20053;-75
2023/06/27 09:00:45;;;;;;;202.13;193.15;;;22.50;96.10;;;;;;5035633;28;20115;-73
2023/06/27 09:03:11;;;;;;;192.25;183.70;;;22.50;94.50;;;;;;5044332;28;20067;-73
2023/06/27 09:05:37;;;;;;;107.75;102.57;;;22.60;94.70;;;;;;5029708;28;20039;-73
2023/06/27 09:08:03;;;;;;;136.52;130.27;;;23.00;96.20;;;;;;5046550;28;20040;-74
2023/06/27 09:10:29;;;;;;;67.18;63.97;;;23.40;94.10;;;;;;5029306;28;20481;-74
2023/06/27 09:12:56;;;;;;;190.82;182.38;;;23.60;95.20;;;;;;5030996;28;20049;-74
2023/06/27 09:15:22;;;;;;;229.50;219.43;;;23.90;91.80;;;;;;5034245;28;20047;-74
2023/06/27 09:17:48;;;;;;;166.25;159.05;;;23.90;90.20;;;;;;5042061;28;20118;-73
2023/06/27 09:20:19;;;;;;;285.85;273.02;;;23.80;91.00;;;;;;5023519;28;20052;-75
2023/06/27 09:22:45;;;;;;;173.30;165.82;;;23.80;90.70;;;;;;5033204;28;20037;-74
2023/06/27 09:25:14;;;;;;;197.95;189.27;;;23.90;91.90;;;;;;5044169;28;20087;-73
2023/06/27 09:27:39;;;;;;;57.03;54.22;;;23.90;90.00;;;;;;5049093;28;20506;-74
2023/06/27 09:30:06;;;;;;;98.57;94.07;;;23.90;91.90;;;;;;5044530;28;20083;-73
2023/06/27 09:32:32;;;;;;;131.68;125.75;;;24.00;90.30;;;;;;5039640;28;20068;-74
2023/06/27 09:35:03;;;;;;;173.05;165.48;;;24.10;89.10;;;;;;5037946;28;20052;-74
2023/06/27 09:37:33;;;;;;;109.35;104.28;;;24.00;86.50;;;;;;5019763;28;20045;-75
2023/06/27 09:40:15;;;;;;;65.97;62.92;;;23.60;85.00;;;;;;5017991;28;20045;-74
2023/06/27 09:42:51;;;;;;;109.53;104.75;;;23.30;87.50;;;;;;5030838;28;20049;-73
2023/06/27 09:45:17;;;;;;;57.92;55.03;;;23.30;86.60;;;;;;5037382;28;20677;-73
2023/06/27 09:47:43;;;;;;;86.18;82.28;;;23.60;89.40;;;;;;5019433;28;20505;-74
2023/06/27 09:50:09;;;;;;;44.17;42.08;;;23.80;86.70;;;;;;5034351;28;20083;-74
2023/06/27 09:52:34;;;;;;;42.78;40.60;;;24.00;88.10;;;;;;5030982;28;20045;-74
2023/06/27 09:55:00;;;;;;;41.03;38.75;;;23.90;88.50;;;;;;5042272;28;20029;-73
2023/06/27 09:57:29;;;;;;;117.05;108.85;;;23.60;88.40;;;;;;5026699;28;20041;-74
2023/06/27 09:59:58;;;;;;;45.10;42.42;;;23.30;85.40;;;;;;5058245;28;20122;-75
2023/06/27 10:02:29;;;;;;;41.50;39.45;;;23.00;88.20;;;;;;5043284;28;20052;-74
2023/06/27 10:04:55;;;;;;;83.15;79.28;;;23.10;91.20;;;;;;5023511;28;20045;-74
2023/06/27 10:07:21;;;;;;;64.60;61.40;;;23.30;90.40;;;;;;5040533;28;20045;-73
2023/06/27 10:09:47;;;;;;;130.15;124.35;;;23.40;90.00;;;;;;5023301;28;20130;-74
2023/06/27 10:12:14;;;;;;;46.55;44.20;;;23.60;88.00;;;;;;5040704;28;20292;-73
2023/06/27 10:14:42;;;;;;;85.38;81.30;;;23.70;89.70;;;;;;5039662;28;20045;-74
2023/06/27 10:17:10;;;;;;;164.40;156.95;;;23.80;88.20;;;;;;5029520;28;20049;-74
2023/06/27 10:19:37;;;;;;;111.65;106.53;;;23.60;84.50;;;;;;5034208;28;20108;-74
2023/06/27 10:22:10;;;;;;;116.03;110.78;;;23.40;83.90;;;;;;5040250;28;20056;-75
2023/06/27 10:24:39;;;;;;;122.63;117.07;;;23.30;85.00;;;;;;5023878;28;20621;-74
2023/06/27 10:27:07;;;;;;;153.82;146.20;;;23.20;86.90;;;;;;5038912;28;20053;-72
2023/06/27 10:29:33;;;;;;;141.80;135.43;;;23.30;84.10;;;;;;5040496;28;20049;-72
2023/06/27 10:31:59;;;;;;;136.35;130.38;;;23.20;83.10;;;;;;5042616;28;20052;-76
2023/06/27 10:34:25;;;;;;;111.47;105.97;;;23.00;83.60;;;;;;5039213;28;20460;-74
2023/06/27 10:37:01;;;;;;;45.40;43.08;;;22.90;83.90;;;;;;5021059;28;20132;-76
2023/06/27 10:39:32;;;;;;;59.45;56.55;;;23.10;85.80;;;;;;5055089;28;20041;-75
2023/06/27 10:42:05;;;;;;;49.85;47.22;;;23.30;85.90;;;;;;5040090;28;20155;-73
2023/06/27 10:44:34;;;;;;;133.90;127.95;;;23.50;85.60;;;;;;5023351;28;20128;-73
2023/06/27 10:47:15;;;;;;;39.58;37.45;;;23.60;84.40;;;;;;5036204;28;20401;-73
2023/06/27 10:49:45;;;;;;;113.53;108.22;;;23.70;86.80;;;;;;5040571;28;20132;-76
2023/06/27 10:52:19;;;;;;;147.05;140.45;;;24.00;84.70;;;;;;5022634;28;20048;-76
2023/06/27 10:54:44;;;;;;;68.07;64.70;;;24.00;79.60;;;;;;5017064;28;20048;-74
2023/06/27 10:57:18;;;;;;;49.33;46.75;;;23.60;82.20;;;;;;5022905;28;20689;-74
2023/06/27 10:59:46;;;;;;;58.17;55.38;;;23.40;83.60;;;;;;5023758;28;20081;-73
2023/06/27 11:02:12;;;;;;;42.30;40.10;;;23.20;85.60;;;;;;5040704;28;20040;-76
2023/06/27 11:04:43;;;;;;;79.20;75.35;;;23.20;85.50;;;;;;5015726;28;20049;-73
2023/06/27 11:07:14;;;;;;;50.78;48.28;;;23.00;84.60;;;;;;5063312;28;20071;-74
2023/06/27 11:09:55;;;;;;;49.72;47.15;;;22.90;86.30;;;;;;5027207;28;20452;-74
2023/06/27 11:12:21;;;;;;;36.88;34.83;;;23.10;88.20;;;;;;5071298;28;20090;-75
2023/06/27 11:14:53;;;;;;;38.65;36.65;;;23.40;88.30;;;;;;5032473;28;20500;-73
2023/06/27 11:17:19;;;;;;;89.45;85.28;;;23.80;88.40;;;;;;5046153;28;20051;-74
2023/06/27 11:19:45;;;;;;;157.68;150.93;;;24.00;85.50;;;;;;5038369;28;20046;-76
2023/06/27 11:22:11;;;;;;;107.38;102.65;;;23.90;80.50;;;;;;5031212;28;20077;-74
2023/06/27 11:24:38;;;;;;;146.13;139.80;;;23.60;83.50;;;;;;5041322;28;20063;-74
2023/06/27 11:27:06;;;;;;;95.72;91.32;;;23.60;83.00;;;;;;5045031;28;20558;-73
2023/06/27 11:29:36;;;;;;;97.63;93.22;;;23.50;83.10;;;;;;5022753;28;20045;-73
2023/06/27 11:32:02;;;;;;;57.35;54.65;;;23.40;83.10;;;;;;5040013;28;20057;-74
2023/06/27 11:34:28;;;;;;;59.83;56.78;;;23.40;85.20;;;;;;5028378;28;20095;-73
2023/06/27 11:36:55;;;;;;;88.90;84.97;;;23.30;84.90;;;;;;5047919;28;20053;-73
2023/06/27 11:39:21;;;;;;;125.28;119.63;;;23.20;84.50;;;;;;5034080;28;20079;-73
2023/06/27 11:41:47;;;;;;;64.68;61.50;;;23.20;84.00;;;;;;5046941;28;20052;-74
2023/06/27 11:44:14;;;;;;;111.15;106.03;;;23.10;85.20;;;;;;5046840;28;20040;-74
2023/06/27 11:46:51;;;;;;;150.32;143.70;;;23.10;84.40;;;;;;5037872;28;20049;-74
2023/06/27 11:49:20;;;;;;;87.78;83.63;;;23.00;83.60;;;;;;5034224;28;20040;-74
2023/06/27 11:51:46;;;;;;;81.15;77.22;;;22.90;84.60;;;;;;5070693;28;20056;-73
2023/06/27 11:54:16;;;;;;;50.17;47.60;;;22.80;85.70;;;;;;5052431;28;20052;-75
2023/06/27 11:56:42;;;;;;;47.60;45.00;;;22.90;86.50;;;;;;5042149;28;20055;-73
2023/06/27 11:59:08;;;;;;;167.48;160.13;;;22.90;86.60;;;;;;5047414;28;20497;-75
2023/06/27 12:01:41;;;;;;;55.28;52.50;;;22.90;83.00;;;;;;5029369;28;20156;-74
2023/06/27 12:04:17;;;;;;;130.85;125.15;;;22.90;85.20;;;;;;5021390;28;20468;-74
2023/06/27 12:06:45;;;;;;;136.80;130.65;;;22.90;84.10;;;;;;5023612;28;20049;-76
2023/06/27 12:09:25;;;;;;;160.02;152.73;;;22.80;83.30;;;;;;5047072;28;20052;-75
2023/06/27 12:11:52;;;;;;;92.57;88.28;;;22.80;81.30;;;;;;5044048;28;20057;-75